sensor_id;sensor_type;location;lat;lon;timestamp;temperature;humidity
14924;DHT22;7554;43.600;1.480;2023-08-06T00:00:18;19.70;1.00
14924;DHT22;7554;43.600;1.480;2023-08-06T00:02:45;19.70;1.00
14924;DHT22;7554;43.600;1.480;2023-08-06T00:05:13;19.60;1.00
14924;DHT22;7554;43.600;1.480;2023-08-06T00:07:43;19.60;1.00
14924;DHT22;7554;43.600;1.480;2023-08-06T00:10:12;19.70;1.00
14924;DHT22;7554;43.600;1.480;2023-08-06T00:12:39;19.70;1.00
14924;DHT22;7554;43.600;1.480;2023-08-06T00:15:08;19.60;1.00
14924;DHT22;7554;43.600;1.480;2023-08-06T00:17:35;19.60;1.00
14924;DHT22;7554;43.600;1.480;2023-08-06T00:20:03;19.50;1.00
14924;DHT22;7554;43.600;1.480;2023-08-06T00:22:32;19.50;1.00
14924;DHT22;7554;43.600;1.480;2023-08-06T00:24:59;19.50;1.00
14924;DHT22;7554;43.600;1.480;2023-08-06T00:27:28;19.40;1.00
14924;DHT22;7554;43.600;1.480;2023-08-06T00:29:55;19.40;1.00
14924;DHT22;7554;43.600;1.480;2023-08-06T00:32:22;19.40;1.00
14924;DHT22;7554;43.600;1.480;2023-08-06T00:34:50;19.30;1.00
14924;DHT22;7554;43.600;1.480;2023-08-06T00:37:17;19.30;1.00
14924;DHT22;7554;43.600;1.480;2023-08-06T00:39:44;19.20;1.00
14924;DHT22;7554;43.600;1.480;2023-08-06T00:42:12;19.30;1.00
14924;DHT22;7554;43.600;1.480;2023-08-06T00:44:41;19.20;1.00
14924;DHT22;7554;43.600;1.480;2023-08-06T00:47:08;19.20;1.00
14924;DHT22;7554;43.600;1.480;2023-08-06T00:49:36;19.20;1.00
14924;DHT22;7554;43.600;1.480;2023-08-06T00:52:04;19.20;1.00
14924;DHT22;7554;43.600;1.480;2023-08-06T00:54:32;19.20;1.00
14924;DHT22;7554;43.600;1.480;2023-08-06T00:57:01;19.10;1.00
14924;DHT22;7554;43.600;1.480;2023-08-06T00:59:29;19.00;1.00
14924;DHT22;7554;43.600;1.480;2023-08-06T01:01:58;18.90;1.00
14924;DHT22;7554;43.600;1.480;2023-08-06T01:04:25;18.90;1.00
14924;DHT22;7554;43.600;1.480;2023-08-06T01:07:02;18.90;1.00
14924;DHT22;7554;43.600;1.480;2023-08-06T01:09:38;18.80;1.00
14924;DHT22;7554;43.600;1.480;2023-08-06T01:12:18;18.80;1.00
14924;DHT22;7554;43.600;1.480;2023-08-06T01:14:54;18.70;1.00
14924;DHT22;7554;43.600;1.480;2023-08-06T01:17:27;18.70;1.00
14924;DHT22;7554;43.600;1.480;2023-08-06T01:19:54;18.80;1.00
14924;DHT22;7554;43.600;1.480;2023-08-06T01:22:23;18.90;1.00
14924;DHT22;7554;43.600;1.480;2023-08-06T01:24:50;18.90;1.00
14924;DHT22;7554;43.600;1.480;2023-08-06T01:27:24;18.70;1.00
14924;DHT22;7554;43.600;1.480;2023-08-06T01:29:59;18.70;1.00
14924;DHT22;7554;43.600;1.480;2023-08-06T01:32:29;18.70;1.00
14924;DHT22;7554;43.600;1.480;2023-08-06T01:35:00;18.70;1.00
14924;DHT22;7554;43.600;1.480;2023-08-06T01:37:31;18.70;1.00
14924;DHT22;7554;43.600;1.480;2023-08-06T01:39:59;18.70;1.00
14924;DHT22;7554;43.600;1.480;2023-08-06T01:42:26;18.80;1.00
14924;DHT22;7554;43.600;1.480;2023-08-06T01:44:53;18.70;1.00
14924;DHT22;7554;43.600;1.480;2023-08-06T01:47:21;18.70;1.00
14924;DHT22;7554;43.600;1.480;2023-08-06T01:49:48;18.70;1.00
14924;DHT22;7554;43.600;1.480;2023-08-06T01:52:15;18.80;1.00
14924;DHT22;7554;43.600;1.480;2023-08-06T01:54:44;18.80;1.00
14924;DHT22;7554;43.600;1.480;2023-08-06T01:57:11;18.70;1.00
14924;DHT22;7554;43.600;1.480;2023-08-06T01:59:40;18.60;1.00
14924;DHT22;7554;43.600;1.480;2023-08-06T02:02:07;18.60;1.00
14924;DHT22;7554;43.600;1.480;2023-08-06T02:04:35;18.60;1.00
14924;DHT22;7554;43.600;1.480;2023-08-06T02:07:02;18.70;1.00
14924;DHT22;7554;43.600;1.480;2023-08-06T02:09:30;18.60;1.00
14924;DHT22;7554;43.600;1.480;2023-08-06T02:11:58;18.60;1.00
14924;DHT22;7554;43.600;1.480;2023-08-06T02:14:26;18.60;1.00
14924;DHT22;7554;43.600;1.480;2023-08-06T02:16:53;18.60;1.00
14924;DHT22;7554;43.600;1.480;2023-08-06T02:19:20;18.70;1.00
14924;DHT22;7554;43.600;1.480;2023-08-06T02:21:47;18.70;1.00
14924;DHT22;7554;43.600;1.480;2023-08-06T02:24:15;18.70;1.00
14924;DHT22;7554;43.600;1.480;2023-08-06T02:26:42;18.70;1.00
14924;DHT22;7554;43.600;1.480;2023-08-06T02:29:11;18.60;1.00
14924;DHT22;7554;43.600;1.480;2023-08-06T02:31:38;18.60;1.00
14924;DHT22;7554;43.600;1.480;2023-08-06T02:34:05;18.70;1.00
14924;DHT22;7554;43.600;1.480;2023-08-06T02:36:33;18.70;1.00
14924;DHT22;7554;43.600;1.480;2023-08-06T02:39:00;18.60;1.00
14924;DHT22;7554;43.600;1.480;2023-08-06T02:41:27;18.60;1.00
14924;DHT22;7554;43.600;1.480;2023-08-06T02:43:54;18.60;1.00
14924;DHT22;7554;43.600;1.480;2023-08-06T02:46:23;18.60;1.00
14924;DHT22;7554;43.600;1.480;2023-08-06T02:48:50;18.60;1.00
14924;DHT22;7554;43.600;1.480;2023-08-06T02:51:18;18.60;1.00
14924;DHT22;7554;43.600;1.480;2023-08-06T02:53:45;18.60;1.00
14924;DHT22;7554;43.600;1.480;2023-08-06T02:56:14;18.60;1.00
14924;DHT22;7554;43.600;1.480;2023-08-06T02:58:42;18.60;1.00
14924;DHT22;7554;43.600;1.480;2023-08-06T03:01:09;18.50;1.00
14924;DHT22;7554;43.600;1.480;2023-08-06T03:03:38;18.50;1.00
14924;DHT22;7554;43.600;1.480;2023-08-06T03:06:05;18.50;1.00
14924;DHT22;7554;43.600;1.480;2023-08-06T03:08:32;18.50;1.00
14924;DHT22;7554;43.600;1.480;2023-08-06T03:11:00;18.50;1.00
14924;DHT22;7554;43.600;1.480;2023-08-06T03:13:27;18.50;1.00
14924;DHT22;7554;43.600;1.480;2023-08-06T03:15:55;18.50;1.00
14924;DHT22;7554;43.600;1.480;2023-08-06T03:18:23;18.50;1.00
14924;DHT22;7554;43.600;1.480;2023-08-06T03:20:53;18.60;1.00
14924;DHT22;7554;43.600;1.480;2023-08-06T03:23:20;18.50;1.00
14924;DHT22;7554;43.600;1.480;2023-08-06T03:25:48;18.60;1.00
14924;DHT22;7554;43.600;1.480;2023-08-06T03:28:15;18.50;1.00
14924;DHT22;7554;43.600;1.480;2023-08-06T03:30:42;18.50;1.00
14924;DHT22;7554;43.600;1.480;2023-08-06T03:33:10;18.50;1.00
14924;DHT22;7554;43.600;1.480;2023-08-06T03:35:37;18.50;1.00
14924;DHT22;7554;43.600;1.480;2023-08-06T03:38:06;18.50;1.00
14924;DHT22;7554;43.600;1.480;2023-08-06T03:40:35;18.40;1.00
14924;DHT22;7554;43.600;1.480;2023-08-06T03:43:03;18.40;1.00
14924;DHT22;7554;43.600;1.480;2023-08-06T03:45:30;18.40;1.00
14924;DHT22;7554;43.600;1.480;2023-08-06T03:47:57;18.50;1.00
14924;DHT22;7554;43.600;1.480;2023-08-06T03:50:24;18.50;1.00
14924;DHT22;7554;43.600;1.480;2023-08-06T03:52:52;18.40;1.00
14924;DHT22;7554;43.600;1.480;2023-08-06T03:55:21;18.50;1.00
14924;DHT22;7554;43.600;1.480;2023-08-06T03:57:48;18.40;1.00
14924;DHT22;7554;43.600;1.480;2023-08-06T04:00:16;18.40;1.00
14924;DHT22;7554;43.600;1.480;2023-08-06T04:02:43;18.40;1.00
14924;DHT22;7554;43.600;1.480;2023-08-06T04:05:12;18.40;1.00
14924;DHT22;7554;43.600;1.480;2023-08-06T04:07:39;18.40;1.00
14924;DHT22;7554;43.600;1.480;2023-08-06T04:10:07;18.40;1.00
14924;DHT22;7554;43.600;1.480;2023-08-06T04:12:35;18.40;1.00
14924;DHT22;7554;43.600;1.480;2023-08-06T04:15:06;18.40;1.00
14924;DHT22;7554;43.600;1.480;2023-08-06T04:17:33;18.40;1.00
14924;DHT22;7554;43.600;1.480;2023-08-06T04:20:00;18.40;1.00
14924;DHT22;7554;43.600;1.480;2023-08-06T04:22:28;18.40;1.00
14924;DHT22;7554;43.600;1.480;2023-08-06T04:24:55;18.40;1.00
14924;DHT22;7554;43.600;1.480;2023-08-06T04:27:22;18.40;1.00
14924;DHT22;7554;43.600;1.480;2023-08-06T04:29:51;18.40;1.00
14924;DHT22;7554;43.600;1.480;2023-08-06T04:32:18;18.40;1.00
14924;DHT22;7554;43.600;1.480;2023-08-06T04:34:46;18.30;1.00
14924;DHT22;7554;43.600;1.480;2023-08-06T04:37:13;18.30;1.00
14924;DHT22;7554;43.600;1.480;2023-08-06T04:39:41;18.30;1.00
14924;DHT22;7554;43.600;1.480;2023-08-06T04:42:08;18.20;1.00
14924;DHT22;7554;43.600;1.480;2023-08-06T04:44:35;18.30;1.00
14924;DHT22;7554;43.600;1.480;2023-08-06T04:47:04;18.30;1.00
14924;DHT22;7554;43.600;1.480;2023-08-06T04:49:31;18.30;1.00
14924;DHT22;7554;43.600;1.480;2023-08-06T04:51:59;18.20;1.00
14924;DHT22;7554;43.600;1.480;2023-08-06T04:54:26;18.20;1.00
14924;DHT22;7554;43.600;1.480;2023-08-06T04:56:53;18.20;1.00
14924;DHT22;7554;43.600;1.480;2023-08-06T04:59:20;18.20;1.00
14924;DHT22;7554;43.600;1.480;2023-08-06T05:01:48;18.20;1.00
14924;DHT22;7554;43.600;1.480;2023-08-06T05:04:16;18.10;1.00
14924;DHT22;7554;43.600;1.480;2023-08-06T05:06:44;18.20;1.00
14924;DHT22;7554;43.600;1.480;2023-08-06T05:09:11;18.10;1.00
14924;DHT22;7554;43.600;1.480;2023-08-06T05:11:38;18.10;1.00
14924;DHT22;7554;43.600;1.480;2023-08-06T05:14:06;18.10;1.00
14924;DHT22;7554;43.600;1.480;2023-08-06T05:16:33;18.10;1.00
14924;DHT22;7554;43.600;1.480;2023-08-06T05:19:00;18.20;1.00
14924;DHT22;7554;43.600;1.480;2023-08-06T05:21:29;18.30;1.00
14924;DHT22;7554;43.600;1.480;2023-08-06T05:23:56;18.20;1.00
14924;DHT22;7554;43.600;1.480;2023-08-06T05:26:23;18.20;1.00
14924;DHT22;7554;43.600;1.480;2023-08-06T05:28:51;18.20;1.00
14924;DHT22;7554;43.600;1.480;2023-08-06T05:31:18;18.30;1.00
14924;DHT22;7554;43.600;1.480;2023-08-06T05:33:45;18.30;1.00
14924;DHT22;7554;43.600;1.480;2023-08-06T05:36:13;18.30;1.00
14924;DHT22;7554;43.600;1.480;2023-08-06T05:38:41;18.40;1.00
14924;DHT22;7554;43.600;1.480;2023-08-06T05:41:09;18.40;1.00
14924;DHT22;7554;43.600;1.480;2023-08-06T05:43:36;18.30;1.00
14924;DHT22;7554;43.600;1.480;2023-08-06T05:46:03;18.30;1.00
14924;DHT22;7554;43.600;1.480;2023-08-06T05:48:31;18.30;1.00
14924;DHT22;7554;43.600;1.480;2023-08-06T05:50:58;18.30;1.00
14924;DHT22;7554;43.600;1.480;2023-08-06T05:53:25;18.30;1.00
14924;DHT22;7554;43.600;1.480;2023-08-06T05:55:54;18.30;1.00
14924;DHT22;7554;43.600;1.480;2023-08-06T05:58:21;18.40;1.00
14924;DHT22;7554;43.600;1.480;2023-08-06T06:00:52;18.40;1.00
14924;DHT22;7554;43.600;1.480;2023-08-06T06:03:19;18.40;1.00
14924;DHT22;7554;43.600;1.480;2023-08-06T06:05:46;18.40;1.00
14924;DHT22;7554;43.600;1.480;2023-08-06T06:08:13;18.40;1.00
14924;DHT22;7554;43.600;1.480;2023-08-06T06:10:41;18.50;1.00
14924;DHT22;7554;43.600;1.480;2023-08-06T06:13:10;18.50;1.00
14924;DHT22;7554;43.600;1.480;2023-08-06T06:15:37;18.50;1.00
14924;DHT22;7554;43.600;1.480;2023-08-06T06:18:04;18.50;1.00
14924;DHT22;7554;43.600;1.480;2023-08-06T06:20:32;18.50;1.00
14924;DHT22;7554;43.600;1.480;2023-08-06T06:22:59;18.60;1.00
14924;DHT22;7554;43.600;1.480;2023-08-06T06:25:27;18.70;1.00
14924;DHT22;7554;43.600;1.480;2023-08-06T06:27:54;18.60;1.00
14924;DHT22;7554;43.600;1.480;2023-08-06T06:30:23;18.70;1.00
14924;DHT22;7554;43.600;1.480;2023-08-06T06:32:50;18.80;1.00
14924;DHT22;7554;43.600;1.480;2023-08-06T06:35:17;18.80;1.00
14924;DHT22;7554;43.600;1.480;2023-08-06T06:37:45;19.00;1.00
14924;DHT22;7554;43.600;1.480;2023-08-06T06:40:12;19.00;1.00
14924;DHT22;7554;43.600;1.480;2023-08-06T06:42:39;18.90;1.00
14924;DHT22;7554;43.600;1.480;2023-08-06T06:45:08;19.00;1.00
14924;DHT22;7554;43.600;1.480;2023-08-06T06:47:37;19.00;1.00
14924;DHT22;7554;43.600;1.480;2023-08-06T06:50:05;19.10;1.00
14924;DHT22;7554;43.600;1.480;2023-08-06T06:52:33;19.10;1.00
14924;DHT22;7554;43.600;1.480;2023-08-06T06:55:00;19.30;1.00
14924;DHT22;7554;43.600;1.480;2023-08-06T06:57:27;19.30;1.00
14924;DHT22;7554;43.600;1.480;2023-08-06T06:59:55;19.20;1.00
14924;DHT22;7554;43.600;1.480;2023-08-06T07:02:22;19.30;1.00
14924;DHT22;7554;43.600;1.480;2023-08-06T07:04:51;19.40;1.00
14924;DHT22;7554;43.600;1.480;2023-08-06T07:07:18;19.70;1.00
14924;DHT22;7554;43.600;1.480;2023-08-06T07:09:46;19.80;1.00
14924;DHT22;7554;43.600;1.480;2023-08-06T07:12:13;20.10;1.00
14924;DHT22;7554;43.600;1.480;2023-08-06T07:14:40;20.10;1.00
14924;DHT22;7554;43.600;1.480;2023-08-06T07:17:08;20.30;1.00
14924;DHT22;7554;43.600;1.480;2023-08-06T07:19:35;20.60;1.00
14924;DHT22;7554;43.600;1.480;2023-08-06T07:22:04;20.60;1.00
14924;DHT22;7554;43.600;1.480;2023-08-06T07:24:31;20.50;1.00
14924;DHT22;7554;43.600;1.480;2023-08-06T07:26:59;20.50;1.00
14924;DHT22;7554;43.600;1.480;2023-08-06T07:29:27;20.50;1.00
14924;DHT22;7554;43.600;1.480;2023-08-06T07:31:54;21.10;1.00
14924;DHT22;7554;43.600;1.480;2023-08-06T07:34:21;21.50;1.00
14924;DHT22;7554;43.600;1.480;2023-08-06T07:36:48;21.40;1.00
14924;DHT22;7554;43.600;1.480;2023-08-06T07:39:17;21.30;1.00
14924;DHT22;7554;43.600;1.480;2023-08-06T07:41:44;22.10;1.00
14924;DHT22;7554;43.600;1.480;2023-08-06T07:44:12;22.20;1.00
14924;DHT22;7554;43.600;1.480;2023-08-06T07:46:39;22.60;1.00
14924;DHT22;7554;43.600;1.480;2023-08-06T07:49:07;22.40;1.00
14924;DHT22;7554;43.600;1.480;2023-08-06T07:51:34;22.40;1.00
14924;DHT22;7554;43.600;1.480;2023-08-06T07:54:01;22.10;1.00
14924;DHT22;7554;43.600;1.480;2023-08-06T07:56:30;22.50;1.00
14924;DHT22;7554;43.600;1.480;2023-08-06T07:58:57;22.60;1.00
14924;DHT22;7554;43.600;1.480;2023-08-06T08:01:25;22.40;1.00
14924;DHT22;7554;43.600;1.480;2023-08-06T08:03:52;22.90;1.00
14924;DHT22;7554;43.600;1.480;2023-08-06T08:06:19;22.80;1.00
14924;DHT22;7554;43.600;1.480;2023-08-06T08:08:46;22.80;1.00
14924;DHT22;7554;43.600;1.480;2023-08-06T08:11:14;23.20;1.00
14924;DHT22;7554;43.600;1.480;2023-08-06T08:13:43;23.20;1.00
14924;DHT22;7554;43.600;1.480;2023-08-06T08:16:10;23.50;1.00
14924;DHT22;7554;43.600;1.480;2023-08-06T08:18:37;23.70;1.00
14924;DHT22;7554;43.600;1.480;2023-08-06T08:21:05;24.20;1.00
14924;DHT22;7554;43.600;1.480;2023-08-06T08:23:32;24.00;1.00
14924;DHT22;7554;43.600;1.480;2023-08-06T08:25:59;23.80;1.00
14924;DHT22;7554;43.600;1.480;2023-08-06T08:28:28;23.80;1.00
14924;DHT22;7554;43.600;1.480;2023-08-06T08:30:56;23.50;1.00
14924;DHT22;7554;43.600;1.480;2023-08-06T08:33:24;24.30;1.00
14924;DHT22;7554;43.600;1.480;2023-08-06T08:35:51;23.50;1.00
14924;DHT22;7554;43.600;1.480;2023-08-06T08:38:18;23.50;1.00
14924;DHT22;7554;43.600;1.480;2023-08-06T08:40:46;24.20;1.00
14924;DHT22;7554;43.600;1.480;2023-08-06T08:43:17;27.50;1.00
14924;DHT22;7554;43.600;1.480;2023-08-06T08:45:49;28.10;1.00
14924;DHT22;7554;43.600;1.480;2023-08-06T08:48:19;25.80;1.00
14924;DHT22;7554;43.600;1.480;2023-08-06T08:50:48;24.30;1.00
14924;DHT22;7554;43.600;1.480;2023-08-06T08:53:17;24.20;1.00
14924;DHT22;7554;43.600;1.480;2023-08-06T08:55:47;26.70;1.00
14924;DHT22;7554;43.600;1.480;2023-08-06T08:58:14;25.70;1.00
14924;DHT22;7554;43.600;1.480;2023-08-06T09:00:42;25.30;1.00
14924;DHT22;7554;43.600;1.480;2023-08-06T09:03:10;24.30;1.00
14924;DHT22;7554;43.600;1.480;2023-08-06T09:05:40;23.80;1.00
14924;DHT22;7554;43.600;1.480;2023-08-06T09:08:12;24.90;1.00
14924;DHT22;7554;43.600;1.480;2023-08-06T09:10:43;25.50;1.00
14924;DHT22;7554;43.600;1.480;2023-08-06T09:13:11;26.70;1.00
14924;DHT22;7554;43.600;1.480;2023-08-06T09:15:38;26.30;1.00
14924;DHT22;7554;43.600;1.480;2023-08-06T09:18:09;25.10;1.00
14924;DHT22;7554;43.600;1.480;2023-08-06T09:20:39;24.20;1.00
14924;DHT22;7554;43.600;1.480;2023-08-06T09:23:10;23.80;1.00
14924;DHT22;7554;43.600;1.480;2023-08-06T09:25:38;23.80;1.00
14924;DHT22;7554;43.600;1.480;2023-08-06T09:28:07;25.90;1.00
14924;DHT22;7554;43.600;1.480;2023-08-06T09:30:37;31.70;1.00
14924;DHT22;7554;43.600;1.480;2023-08-06T09:33:08;33.70;1.00
14924;DHT22;7554;43.600;1.480;2023-08-06T09:35:39;31.20;1.00
14924;DHT22;7554;43.600;1.480;2023-08-06T09:38:07;29.00;1.00
14924;DHT22;7554;43.600;1.480;2023-08-06T09:40:36;29.50;1.00
14924;DHT22;7554;43.600;1.480;2023-08-06T09:43:04;28.00;1.00
14924;DHT22;7554;43.600;1.480;2023-08-06T09:45:34;26.70;1.00
14924;DHT22;7554;43.600;1.480;2023-08-06T09:48:04;26.20;1.00
14924;DHT22;7554;43.600;1.480;2023-08-06T09:50:32;25.40;1.00
14924;DHT22;7554;43.600;1.480;2023-08-06T09:53:04;25.00;1.00
14924;DHT22;7554;43.600;1.480;2023-08-06T09:55:32;25.10;1.00
14924;DHT22;7554;43.600;1.480;2023-08-06T09:57:59;25.10;1.00
14924;DHT22;7554;43.600;1.480;2023-08-06T10:00:27;25.80;1.00
14924;DHT22;7554;43.600;1.480;2023-08-06T10:03:00;26.00;1.00
14924;DHT22;7554;43.600;1.480;2023-08-06T10:05:28;25.70;1.00
14924;DHT22;7554;43.600;1.480;2023-08-06T10:07:57;25.70;1.00
14924;DHT22;7554;43.600;1.480;2023-08-06T10:10:28;26.30;1.00
14924;DHT22;7554;43.600;1.480;2023-08-06T10:12:57;26.70;1.00
14924;DHT22;7554;43.600;1.480;2023-08-06T10:15:27;26.50;1.00
14924;DHT22;7554;43.600;1.480;2023-08-06T10:17:57;25.80;1.00
14924;DHT22;7554;43.600;1.480;2023-08-06T10:20:25;25.20;1.00
14924;DHT22;7554;43.600;1.480;2023-08-06T10:23:00;25.00;1.00
14924;DHT22;7554;43.600;1.480;2023-08-06T10:25:32;25.50;1.00
14924;DHT22;7554;43.600;1.480;2023-08-06T10:28:00;25.20;1.00
14924;DHT22;7554;43.600;1.480;2023-08-06T10:30:29;25.90;1.00
14924;DHT22;7554;43.600;1.480;2023-08-06T10:32:59;25.90;1.00
14924;DHT22;7554;43.600;1.480;2023-08-06T10:35:31;25.80;1.00
14924;DHT22;7554;43.600;1.480;2023-08-06T10:38:09;25.30;1.00
14924;DHT22;7554;43.600;1.480;2023-08-06T10:40:40;25.10;1.00
14924;DHT22;7554;43.600;1.480;2023-08-06T10:43:08;25.50;1.00
14924;DHT22;7554;43.600;1.480;2023-08-06T10:45:51;25.70;1.00
14924;DHT22;7554;43.600;1.480;2023-08-06T10:48:29;25.70;1.00
14924;DHT22;7554;43.600;1.480;2023-08-06T10:50:56;25.60;1.00
14924;DHT22;7554;43.600;1.480;2023-08-06T10:53:24;26.00;1.00
14924;DHT22;7554;43.600;1.480;2023-08-06T10:55:53;25.90;1.00
14924;DHT22;7554;43.600;1.480;2023-08-06T10:58:20;26.10;1.00
14924;DHT22;7554;43.600;1.480;2023-08-06T11:00:47;26.30;1.00
14924;DHT22;7554;43.600;1.480;2023-08-06T11:03:15;26.40;1.00
14924;DHT22;7554;43.600;1.480;2023-08-06T11:05:48;26.40;1.00
14924;DHT22;7554;43.600;1.480;2023-08-06T11:08:24;26.30;1.00
14924;DHT22;7554;43.600;1.480;2023-08-06T11:10:53;26.10;1.00
14924;DHT22;7554;43.600;1.480;2023-08-06T11:13:20;26.20;1.00
14924;DHT22;7554;43.600;1.480;2023-08-06T11:15:48;26.60;1.00
14924;DHT22;7554;43.600;1.480;2023-08-06T11:18:15;26.40;1.00
14924;DHT22;7554;43.600;1.480;2023-08-06T11:20:43;26.00;1.00
14924;DHT22;7554;43.600;1.480;2023-08-06T11:23:10;26.00;1.00
14924;DHT22;7554;43.600;1.480;2023-08-06T11:25:44;26.10;1.00
14924;DHT22;7554;43.600;1.480;2023-08-06T11:28:13;26.10;1.00
14924;DHT22;7554;43.600;1.480;2023-08-06T11:30:40;26.30;1.00
14924;DHT22;7554;43.600;1.480;2023-08-06T11:33:08;26.30;1.00
14924;DHT22;7554;43.600;1.480;2023-08-06T11:35:36;26.10;1.00
14924;DHT22;7554;43.600;1.480;2023-08-06T11:38:05;26.20;1.00
14924;DHT22;7554;43.600;1.480;2023-08-06T11:40:33;26.40;1.00
14924;DHT22;7554;43.600;1.480;2023-08-06T11:43:02;26.30;1.00
14924;DHT22;7554;43.600;1.480;2023-08-06T11:45:31;26.70;1.00
14924;DHT22;7554;43.600;1.480;2023-08-06T11:47:59;26.60;1.00
14924;DHT22;7554;43.600;1.480;2023-08-06T11:50:26;25.90;1.00
14924;DHT22;7554;43.600;1.480;2023-08-06T11:52:57;25.60;1.00
14924;DHT22;7554;43.600;1.480;2023-08-06T11:55:24;25.40;1.00
14924;DHT22;7554;43.600;1.480;2023-08-06T11:57:52;25.70;1.00
14924;DHT22;7554;43.600;1.480;2023-08-06T12:00:19;25.40;1.00
14924;DHT22;7554;43.600;1.480;2023-08-06T12:02:49;25.40;1.00
14924;DHT22;7554;43.600;1.480;2023-08-06T12:05:19;25.60;1.00
14924;DHT22;7554;43.600;1.480;2023-08-06T12:07:50;25.50;1.00
14924;DHT22;7554;43.600;1.480;2023-08-06T12:10:17;25.60;1.00
14924;DHT22;7554;43.600;1.480;2023-08-06T12:12:46;25.90;1.00
14924;DHT22;7554;43.600;1.480;2023-08-06T12:15:14;25.90;1.00
14924;DHT22;7554;43.600;1.480;2023-08-06T12:17:41;25.80;1.00
14924;DHT22;7554;43.600;1.480;2023-08-06T12:20:11;26.20;1.00
14924;DHT22;7554;43.600;1.480;2023-08-06T12:22:38;26.30;1.00
14924;DHT22;7554;43.600;1.480;2023-08-06T12:25:08;26.30;1.00
14924;DHT22;7554;43.600;1.480;2023-08-06T12:27:38;26.10;1.00
14924;DHT22;7554;43.600;1.480;2023-08-06T12:30:07;25.80;1.00
14924;DHT22;7554;43.600;1.480;2023-08-06T12:32:34;25.90;1.00
14924;DHT22;7554;43.600;1.480;2023-08-06T12:35:02;26.10;1.00
14924;DHT22;7554;43.600;1.480;2023-08-06T12:37:31;26.40;1.00
14924;DHT22;7554;43.600;1.480;2023-08-06T12:39:59;26.60;1.00
14924;DHT22;7554;43.600;1.480;2023-08-06T12:42:26;26.30;1.00
14924;DHT22;7554;43.600;1.480;2023-08-06T12:44:54;26.30;1.00
14924;DHT22;7554;43.600;1.480;2023-08-06T12:47:21;26.80;1.00
14924;DHT22;7554;43.600;1.480;2023-08-06T12:49:49;26.50;1.00
14924;DHT22;7554;43.600;1.480;2023-08-06T12:52:16;26.10;1.00
14924;DHT22;7554;43.600;1.480;2023-08-06T12:54:47;25.90;1.00
14924;DHT22;7554;43.600;1.480;2023-08-06T12:57:14;25.40;1.00
14924;DHT22;7554;43.600;1.480;2023-08-06T12:59:43;25.50;1.00
14924;DHT22;7554;43.600;1.480;2023-08-06T13:02:10;25.70;1.00
14924;DHT22;7554;43.600;1.480;2023-08-06T13:04:37;26.00;1.00
14924;DHT22;7554;43.600;1.480;2023-08-06T13:07:05;26.30;1.00
14924;DHT22;7554;43.600;1.480;2023-08-06T13:09:33;26.50;1.00
14924;DHT22;7554;43.600;1.480;2023-08-06T13:12:02;26.20;1.00
14924;DHT22;7554;43.600;1.480;2023-08-06T13:14:31;26.10;1.00
14924;DHT22;7554;43.600;1.480;2023-08-06T13:17:00;26.30;1.00
14924;DHT22;7554;43.600;1.480;2023-08-06T13:19:28;26.30;1.00
14924;DHT22;7554;43.600;1.480;2023-08-06T13:22:00;26.20;1.00
14924;DHT22;7554;43.600;1.480;2023-08-06T13:24:29;26.30;1.00
14924;DHT22;7554;43.600;1.480;2023-08-06T13:26:57;26.10;1.00
14924;DHT22;7554;43.600;1.480;2023-08-06T13:29:27;26.10;1.00
14924;DHT22;7554;43.600;1.480;2023-08-06T13:31:54;25.70;1.00
14924;DHT22;7554;43.600;1.480;2023-08-06T13:34:22;25.50;1.00
14924;DHT22;7554;43.600;1.480;2023-08-06T13:36:49;25.80;1.00
14924;DHT22;7554;43.600;1.480;2023-08-06T13:39:16;25.90;1.00
14924;DHT22;7554;43.600;1.480;2023-08-06T13:41:45;25.60;1.00
14924;DHT22;7554;43.600;1.480;2023-08-06T13:44:12;25.80;1.00
14924;DHT22;7554;43.600;1.480;2023-08-06T13:46:42;25.80;1.00
14924;DHT22;7554;43.600;1.480;2023-08-06T13:49:10;25.70;1.00
14924;DHT22;7554;43.600;1.480;2023-08-06T13:51:38;25.80;1.00
14924;DHT22;7554;43.600;1.480;2023-08-06T13:54:05;25.70;1.00
14924;DHT22;7554;43.600;1.480;2023-08-06T13:56:34;25.60;1.00
14924;DHT22;7554;43.600;1.480;2023-08-06T13:59:03;25.50;1.00
14924;DHT22;7554;43.600;1.480;2023-08-06T14:01:31;25.50;1.00
14924;DHT22;7554;43.600;1.480;2023-08-06T14:03:59;25.40;1.00
14924;DHT22;7554;43.600;1.480;2023-08-06T14:06:27;25.50;1.00
14924;DHT22;7554;43.600;1.480;2023-08-06T14:08:54;25.50;1.00
14924;DHT22;7554;43.600;1.480;2023-08-06T14:11:21;25.20;1.00
14924;DHT22;7554;43.600;1.480;2023-08-06T14:13:48;25.20;1.00
14924;DHT22;7554;43.600;1.480;2023-08-06T14:16:16;25.40;1.00
14924;DHT22;7554;43.600;1.480;2023-08-06T14:18:43;25.60;1.00
14924;DHT22;7554;43.600;1.480;2023-08-06T14:21:12;25.90;1.00
14924;DHT22;7554;43.600;1.480;2023-08-06T14:23:40;25.90;1.00
14924;DHT22;7554;43.600;1.480;2023-08-06T14:26:07;25.90;1.00
14924;DHT22;7554;43.600;1.480;2023-08-06T14:28:36;26.10;1.00
14924;DHT22;7554;43.600;1.480;2023-08-06T14:31:03;26.10;1.00
14924;DHT22;7554;43.600;1.480;2023-08-06T14:33:31;25.70;1.00
14924;DHT22;7554;43.600;1.480;2023-08-06T14:35:58;25.60;1.00
14924;DHT22;7554;43.600;1.480;2023-08-06T14:38:26;25.50;1.00
14924;DHT22;7554;43.600;1.480;2023-08-06T14:40:54;25.40;1.00
14924;DHT22;7554;43.600;1.480;2023-08-06T14:43:21;25.40;1.00
14924;DHT22;7554;43.600;1.480;2023-08-06T14:45:48;25.40;1.00
14924;DHT22;7554;43.600;1.480;2023-08-06T14:48:16;25.40;1.00
14924;DHT22;7554;43.600;1.480;2023-08-06T14:50:43;25.40;1.00
14924;DHT22;7554;43.600;1.480;2023-08-06T14:53:10;25.50;1.00
14924;DHT22;7554;43.600;1.480;2023-08-06T14:55:40;25.30;1.00
14924;DHT22;7554;43.600;1.480;2023-08-06T14:58:08;25.20;1.00
14924;DHT22;7554;43.600;1.480;2023-08-06T15:00:35;25.10;1.00
14924;DHT22;7554;43.600;1.480;2023-08-06T15:03:02;25.20;1.00
14924;DHT22;7554;43.600;1.480;2023-08-06T15:05:30;24.90;1.00
14924;DHT22;7554;43.600;1.480;2023-08-06T15:07:57;24.90;1.00
14924;DHT22;7554;43.600;1.480;2023-08-06T15:10:24;25.20;1.00
14924;DHT22;7554;43.600;1.480;2023-08-06T15:12:53;25.40;1.00
14924;DHT22;7554;43.600;1.480;2023-08-06T15:15:20;25.20;1.00
14924;DHT22;7554;43.600;1.480;2023-08-06T15:17:48;25.20;1.00
14924;DHT22;7554;43.600;1.480;2023-08-06T15:20:15;25.10;1.00
14924;DHT22;7554;43.600;1.480;2023-08-06T15:22:42;25.20;1.00
14924;DHT22;7554;43.600;1.480;2023-08-06T15:25:10;25.30;1.00
14924;DHT22;7554;43.600;1.480;2023-08-06T15:27:37;25.30;1.00
14924;DHT22;7554;43.600;1.480;2023-08-06T15:30:08;25.20;1.00
14924;DHT22;7554;43.600;1.480;2023-08-06T15:32:35;25.40;1.00
14924;DHT22;7554;43.600;1.480;2023-08-06T15:35:03;25.20;1.00
14924;DHT22;7554;43.600;1.480;2023-08-06T15:37:31;25.10;1.00
14924;DHT22;7554;43.600;1.480;2023-08-06T15:39:59;25.20;1.00
14924;DHT22;7554;43.600;1.480;2023-08-06T15:42:26;25.30;1.00
14924;DHT22;7554;43.600;1.480;2023-08-06T15:44:53;25.50;1.00
14924;DHT22;7554;43.600;1.480;2023-08-06T15:47:22;25.70;1.00
14924;DHT22;7554;43.600;1.480;2023-08-06T15:49:49;25.70;1.00
14924;DHT22;7554;43.600;1.480;2023-08-06T15:52:17;25.40;1.00
14924;DHT22;7554;43.600;1.480;2023-08-06T15:54:44;25.20;1.00
14924;DHT22;7554;43.600;1.480;2023-08-06T15:57:11;25.00;1.00
14924;DHT22;7554;43.600;1.480;2023-08-06T15:59:39;24.90;1.00
14924;DHT22;7554;43.600;1.480;2023-08-06T16:02:06;25.00;1.00
14924;DHT22;7554;43.600;1.480;2023-08-06T16:04:36;24.90;1.00
14924;DHT22;7554;43.600;1.480;2023-08-06T16:07:04;25.00;1.00